Tremonton, Utah
Current Conditions -  °F | °C
As of 6:15 PM on Friday 31 Oct 2014 (Local Time) from KBMC Reporting Station
Clear Clear  
Wind Chill: 64°   Ceiling: Unl
Heat Index: 64°   Visibility: 10mi
Dew Point: 30°   Wind: 5mph
Humidity: 28%   Direction: 110°ESE
Pressure: 29.84"   Gusts: NA
Location:  41.71°N, 112.17°W
Report Text: KBMC 010015Z AUTO 11004KT 10SM CLR 18/M01 A2984 RMK AO1 T01791010
Loading
Personal Weather Stations






























Interactive Weather Map
Tropical Storm Tracking
New forecast layout! Learn more

10-Day Weather Forecast

Advertisements
Track Severe Weather on mobile